Terminal Aerodrome Forecast
Issued by NWS Mt. Holly, NJ

Home | Current Version | Previous Version | Text Only | Print | Product List | Glossary On
Versions: 1 2 3 4 5 6 7 8 9 10 11 12 13 14 15 16 17 18 19
000
FTUS41 KPHI 281700
TAFABE
TAF
KABE 281726Z 2818/2918 31011G19KT P6SM SKC
     FM282000 32009KT P6SM SKC
     FM290400 VRB02KT P6SM SCT250
     FM291600 12005KT P6SM BKN100 OVC200=

USA.gov is the U.S. government's official web portal to all federal, state and local government web resources and services.